Williamsport, KY (41271)

3:08 PM EDT on May 22, 2015 (GMT -0400)
West Van Lear | | Change Station
CLOSE
Current Station
Personal Weather Station
Location: West Van Lear, KY
Elevation: 610 ft
Nearby Weather Stations

Elev 610 ft 37.79 °N, 82.79 °W | Updated 12 minutes ago

Partly Cloudy
Partly Cloudy
72.0 °F
Feels Like 77 °F
N
4.2
Wind Variable Wind from WSW

Today
High -- | Low -- °F
--% Chance of Precip.
Yesterday
High -- | Low -- °F
Precip. -- in
6:15 AM 8:39 PM
Waxing Crescent, 23% visible
Pressure 30.26 in
Visibility 10.0 miles
Clouds Scattered Clouds 4600 ft
Heat Index 77 °F
Dew Point 51 °F
Humidity 48%
Rainfall 0.00 in
Snow Depth Not available.
UV 9 out of 12
Pollen 8.00 out of 12
Air Quality Not available.
Flu Activity Sporadic
METAR KSJS 221855Z AUTO 26005KT 10SM SCT046 20/08 A3026 RMK AO2 T01950080

More Conditions Fewer Conditions

Pressure 30.26 in
Visibility 10.0 miles
Clouds Scattered Clouds 4600 ft
Heat Index 77 °F
Dew Point 51 °F
Humidity 48%
Rainfall 0.00 in
Snow Depth Not available.
UV 9 out of 12
Pollen 8.00 out of 12
Air Quality Not available.
Flu Activity Sporadic
METAR KSJS 221855Z AUTO 26005KT 10SM SCT046 20/08 A3026 RMK AO2 T01950080

More Conditions Fewer Conditions

10-Day Weather Forecast

Almanac

Astronomy

May. 22, 2015 Rise Set
Actual Time
Civil Twilight
Nautical Twilight
Astronomical Twilight
Moon
Length of Visible Light
Length of Day
Tomorrow will be .
, % of the Moon is Illuminated

Today's Extremes

State Highs State Lows

Community

WunderPhotos

Upload Photos

1,823,278 photos uploaded!

WunderBlogs® & News

Nearby

Air Quality

  Air Quality AQ Index Pollutant
Not available.

Snow Depth

Station Depth Elevation

Earthquake Activity

City Distance Mag. Time & Date
Minimum magnitude displayed is 2.5.

Coastal Water Temperatures

Place Temperature

Stations

Nearby Weather Stations

Station Location Temp. Windchill Dew Point Humidity Wind Precip. Elev Updated Type